Time;durP1;ratioP1;P1;durP2;ratioP2;P2;SDS_P1;SDS_P2;PMS_P1;PMS_P2;Temp;Humidity;BMP_temperature;BMP_pressure;BME280_temperature;BME280_humidity;BME280_pressure;Samples;Min_cycle;Max_cycle;Signal;HPM_P1;HPM_P2
2023/05/14 00:01:55;;;;;;;;;;;;;;;-147.27;100.00;65176.34;5119223;28;19915;-52
2023/05/14 00:04:20;;;;;;;;;;;;;;;-147.27;100.00;65176.34;5119438;28;19995;-52
2023/05/14 00:06:46;;;;;;;;;;;;;;;-147.27;100.00;65176.34;5121404;28;21835;-50
2023/05/14 00:09:11;;;;;;;;;;;;;;;-147.27;100.00;65176.34;5116205;28;19930;-51
2023/05/14 00:11:37;;;;;;;;;;;;;;;-147.27;100.00;65176.34;5119735;28;19919;-50
2023/05/14 00:14:02;;;;;;;;;;;;;;;-147.27;100.00;65176.34;5117084;28;19927;-49
2023/05/14 00:16:28;;;;;;;;;;;;;;;-147.27;100.00;65176.34;5118406;28;19947;-52
2023/05/14 00:18:53;;;;;;;;;;;;;;;-147.27;100.00;65176.34;5117856;28;19912;-49
2023/05/14 00:21:18;;;;;;;;;;;;;;;-147.27;100.00;65176.34;5117611;28;19989;-50
2023/05/14 00:23:44;;;;;;;;;;;;;;;-147.27;100.00;65176.34;5118764;28;19921;-48
2023/05/14 00:26:09;;;;;;;;;;;;;;;-147.27;100.00;65176.34;5120713;28;19916;-50
2023/05/14 00:28:37;;;;;;;;;;;;;;;-147.27;100.00;65176.34;5117357;28;19924;-49
2023/05/14 00:31:02;;;;;;;;;;;;;;;-147.27;100.00;65176.34;5116322;28;19943;-49
2023/05/14 00:33:29;;;;;;;;;;;;;;;-147.27;100.00;65176.34;5119559;28;20305;-48
2023/05/14 00:35:55;;;;;;;;;;;;;;;-147.27;100.00;65176.34;5113962;28;19923;-52
2023/05/14 00:38:20;;;;;;;;;;;;;;;-147.27;100.00;65176.34;5117163;28;19920;-49
2023/05/14 00:40:50;;;;;;;;;;;;;;;-147.27;100.00;65176.34;5118859;28;19923;-48
2023/05/14 00:43:18;;;;;;;;;;;;;;;-147.27;100.00;65176.34;5121084;28;19924;-52
2023/05/14 00:45:44;;;;;;;;;;;;;;;-147.27;100.00;65176.34;5117776;28;19924;-51
2023/05/14 00:48:10;;;;;;;;;;;;;;;-147.27;100.00;65176.34;5113432;28;19916;-54
2023/05/14 00:50:35;;;;;;;;;;;;;;;-147.27;100.00;65176.34;5116720;28;19922;-49
2023/05/14 00:53:01;;;;;;;;;;;;;;;-147.27;100.00;65176.34;5114118;28;19924;-53
2023/05/14 00:55:28;;;;;;;;;;;;;;;-147.27;100.00;65176.34;5101459;28;19931;-50
2023/05/14 00:57:56;;;;;;;;;;;;;;;-147.27;100.00;65176.34;5106978;28;19916;-52
2023/05/14 01:00:22;;;;;;;;;;;;;;;-147.27;100.00;65176.34;5107496;28;19983;-49
2023/05/14 01:02:48;;;;;;;;;;;;;;;-147.27;100.00;65176.34;5086965;28;19928;-51
2023/05/14 01:05:13;;;;;;;;;;;;;;;-147.27;100.00;65176.34;5088433;28;19952;-52
2023/05/14 01:07:56;;;;;;;;;;;;;;;-147.27;100.00;65176.34;5085850;28;19948;-52
2023/05/14 01:10:29;;;;;;;;;;;;;;;-147.27;100.00;65176.34;5104540;28;19916;-50
2023/05/14 01:13:00;;;;;;;;;;;;;;;-147.27;100.00;65176.34;5103699;28;19923;-51
2023/05/14 01:15:28;;;;;;;;;;;;;;;-147.27;100.00;65176.34;5084397;28;19919;-53
2023/05/14 01:17:57;;;;;;;;;;;;;;;-147.27;100.00;65176.34;5105508;28;19938;-53
2023/05/14 01:20:23;;;;;;;;;;;;;;;-147.27;100.00;65176.34;5088120;28;19916;-48
2023/05/14 01:22:48;;;;;;;;;;;;;;;-147.27;100.00;65176.34;5083289;28;19992;-52
2023/05/14 01:25:13;;;;;;;;;;;;;;;-147.27;100.00;65176.34;5085132;28;19927;-52
2023/05/14 01:27:53;;;;;;;;;;;;;;;-147.27;100.00;65176.34;5103092;28;20378;-51
2023/05/14 01:30:25;;;;;;;;;;;;;;;-147.27;100.00;65176.34;5086492;28;19920;-51
2023/05/14 01:32:52;;;;;;;;;;;;;;;-147.27;100.00;65176.34;5082491;28;20015;-50
2023/05/14 01:35:18;;;;;;;;;;;;;;;-147.27;100.00;65176.34;5104540;28;19920;-51
2023/05/14 01:37:44;;;;;;;;;;;;;;;-147.27;100.00;65176.34;5075793;28;19969;-50
2023/05/14 01:40:12;;;;;;;;;;;;;;;-147.27;100.00;65176.34;5084112;28;19920;-50
2023/05/14 01:42:38;;;;;;;;;;;;;;;-147.27;100.00;65176.34;5086181;28;19920;-47
2023/05/14 01:45:04;;;;;;;;;;;;;;;-147.27;100.00;65176.34;5106837;28;19979;-54
2023/05/14 01:47:29;;;;;;;;;;;;;;;-147.27;100.00;65176.34;5084180;28;19916;-53
2023/05/14 01:49:55;;;;;;;;;;;;;;;-147.27;100.00;65176.34;5105017;28;19912;-51
2023/05/14 01:52:20;;;;;;;;;;;;;;;-147.27;100.00;65176.34;5089792;28;19916;-50
2023/05/14 01:54:46;;;;;;;;;;;;;;;-147.27;100.00;65176.34;5108933;28;19920;-52
2023/05/14 01:57:12;;;;;;;;;;;;;;;-147.27;100.00;65176.34;5108001;28;19932;-53
2023/05/14 01:59:37;;;;;;;;;;;;;;;-147.27;100.00;65176.34;5109319;28;19947;-52
2023/05/14 02:02:03;;;;;;;;;;;;;;;-147.27;100.00;65176.34;5088238;28;19939;-51
2023/05/14 02:04:28;;;;;;;;;;;;;;;-147.27;100.00;65176.34;5124203;28;19916;-52
2023/05/14 02:06:54;;;;;;;;;;;;;;;-147.27;100.00;65176.34;5087558;28;19924;-52
2023/05/14 02:09:23;;;;;;;;;;;;;;;-147.27;100.00;65176.34;5108085;28;19916;-53
2023/05/14 02:11:48;;;;;;;;;;;;;;;-147.27;100.00;65176.34;5115288;28;19924;-49
2023/05/14 02:14:14;;;;;;;;;;;;;;;-147.27;100.00;65176.34;5085158;28;19935;-50
2023/05/14 02:16:40;;;;;;;;;;;;;;;-147.27;100.00;65176.34;5102652;28;19946;-51
2023/05/14 02:19:05;;;;;;;;;;;;;;;-147.27;100.00;65176.34;5109416;28;19924;-53
2023/05/14 02:21:31;;;;;;;;;;;;;;;-147.27;100.00;65176.34;5088377;28;19927;-53
2023/05/14 02:23:56;;;;;;;;;;;;;;;-147.27;100.00;65176.34;5104225;28;19920;-51
2023/05/14 02:26:22;;;;;;;;;;;;;;;-147.27;100.00;65176.34;5103912;28;19916;-48
2023/05/14 02:28:48;;;;;;;;;;;;;;;-147.27;100.00;65176.34;5091657;28;19975;-46
2023/05/14 02:31:16;;;;;;;;;;;;;;;-147.27;100.00;65176.34;5103441;28;19920;-48
2023/05/14 02:33:41;;;;;;;;;;;;;;;-147.27;100.00;65176.34;5105328;28;19975;-50
2023/05/14 02:36:07;;;;;;;;;;;;;;;-147.27;100.00;65176.34;5103649;28;19935;-50
2023/05/14 02:38:32;;;;;;;;;;;;;;;-147.27;100.00;65176.34;5104654;28;19916;-49
2023/05/14 02:40:58;;;;;;;;;;;;;;;-147.27;100.00;65176.34;5085116;28;19928;-49
2023/05/14 02:43:23;;;;;;;;;;;;;;;-147.27;100.00;65176.34;5108311;28;20014;-50
2023/05/14 02:45:49;;;;;;;;;;;;;;;-147.27;100.00;65176.34;5085565;28;19927;-49
2023/05/14 02:48:14;;;;;;;;;;;;;;;-147.27;100.00;65176.34;5121226;28;19920;-50
2023/05/14 02:50:40;;;;;;;;;;;;;;;-147.27;100.00;65176.34;5101966;28;19928;-49
2023/05/14 02:53:05;;;;;;;;;;;;;;;-147.27;100.00;65176.34;5106352;28;19920;-47
2023/05/14 02:55:31;;;;;;;;;;;;;;;-147.27;100.00;65176.34;5082663;28;19963;-51
2023/05/14 02:57:56;;;;;;;;;;;;;;;-147.27;100.00;65176.34;5087426;28;19923;-51
2023/05/14 03:00:21;;;;;;;;;;;;;;;-147.27;100.00;65176.34;5088086;28;19976;-50
2023/05/14 03:02:47;;;;;;;;;;;;;;;-147.27;100.00;65176.34;5086150;28;19931;-51
2023/05/14 03:05:12;;;;;;;;;;;;;;;-147.27;100.00;65176.34;5101754;28;19917;-50
2023/05/14 03:07:38;;;;;;;;;;;;;;;-147.27;100.00;65176.34;5103104;28;19939;-47
2023/05/14 03:10:03;;;;;;;;;;;;;;;-147.27;100.00;65176.34;5105445;28;19931;-50
2023/05/14 03:12:29;;;;;;;;;;;;;;;-147.27;100.00;65176.34;5107282;28;19930;-50
2023/05/14 03:14:55;;;;;;;;;;;;;;;-147.27;100.00;65176.34;5085215;28;19917;-52
2023/05/14 03:17:21;;;;;;;;;;;;;;;-147.27;100.00;65176.34;5088308;28;19920;-51
2023/05/14 03:19:47;;;;;;;;;;;;;;;-147.27;100.00;65176.34;5106294;28;20390;-49
2023/05/14 03:22:12;;;;;;;;;;;;;;;-147.27;100.00;65176.34;5109561;28;19924;-51
2023/05/14 03:24:38;;;;;;;;;;;;;;;-147.27;100.00;65176.34;5090414;28;19987;-49
2023/05/14 03:27:03;;;;;;;;;;;;;;;-147.27;100.00;65176.34;5111782;28;19934;-49
2023/05/14 03:29:29;;;;;;;;;;;;;;;-147.27;100.00;65176.34;5107610;28;19920;-52
2023/05/14 03:31:55;;;;;;;;;;;;;;;-147.27;100.00;65176.34;5107402;28;19923;-48
2023/05/14 03:34:21;;;;;;;;;;;;;;;-147.27;100.00;65176.34;5107696;28;19916;-50
2023/05/14 03:36:46;;;;;;;;;;;;;;;-147.27;100.00;65176.34;5089696;28;19944;-54
2023/05/14 03:39:14;;;;;;;;;;;;;;;-147.27;100.00;65176.34;5109634;28;19938;-53
2023/05/14 03:41:39;;;;;;;;;;;;;;;-147.27;100.00;65176.34;5104835;28;19916;-48
2023/05/14 03:44:05;;;;;;;;;;;;;;;-147.27;100.00;65176.34;5106817;28;19920;-48
2023/05/14 03:46:30;;;;;;;;;;;;;;;-147.27;100.00;65176.34;5108805;28;20006;-54
2023/05/14 03:48:56;;;;;;;;;;;;;;;-147.27;100.00;65176.34;5108417;28;19916;-51
2023/05/14 03:51:22;;;;;;;;;;;;;;;-147.27;100.00;65176.34;5109964;28;19916;-53
2023/05/14 03:53:47;;;;;;;;;;;;;;;-147.27;100.00;65176.34;5107559;28;19924;-51
2023/05/14 03:56:12;;;;;;;;;;;;;;;-147.27;100.00;65176.34;5091476;28;19932;-52
2023/05/14 03:58:39;;;;;;;;;;;;;;;-147.27;100.00;65176.34;5086248;28;19916;-48
2023/05/14 04:01:04;;;;;;;;;;;;;;;-147.27;100.00;65176.34;5091227;28;19961;-49
2023/05/14 04:03:30;;;;;;;;;;;;;;;-147.27;100.00;65176.34;5104633;28;19920;-54
2023/05/14 04:05:56;;;;;;;;;;;;;;;-147.27;100.00;65176.34;5088571;28;19983;-50
2023/05/14 04:08:21;;;;;;;;;;;;;;;-147.27;100.00;65176.34;5108468;28;19924;-53
2023/05/14 04:10:48;;;;;;;;;;;;;;;-147.27;100.00;65176.34;5107863;28;19916;-55
2023/05/14 04:13:14;;;;;;;;;;;;;;;-147.27;100.00;65176.34;5107452;28;19945;-51
2023/05/14 04:15:39;;;;;;;;;;;;;;;-147.27;100.00;65176.34;5093101;28;19965;-51
2023/05/14 04:18:04;;;;;;;;;;;;;;;-147.27;100.00;65176.34;5109457;28;19971;-51
2023/05/14 04:20:30;;;;;;;;;;;;;;;-147.27;100.00;65176.34;5092553;28;19916;-50
2023/05/14 04:22:55;;;;;;;;;;;;;;;-147.27;100.00;65176.34;5089692;28;19924;-54
2023/05/14 04:25:21;;;;;;;;;;;;;;;-147.27;100.00;65176.34;5107259;28;19916;-54
2023/05/14 04:27:47;;;;;;;;;;;;;;;-147.27;100.00;65176.34;5109334;28;19927;-52
2023/05/14 04:30:12;;;;;;;;;;;;;;;-147.27;100.00;65176.34;5106863;28;19916;-50
2023/05/14 04:32:38;;;;;;;;;;;;;;;-147.27;100.00;65176.34;5106698;28;19916;-52
2023/05/14 04:35:03;;;;;;;;;;;;;;;-147.27;100.00;65176.34;5089446;28;20298;-48
2023/05/14 04:37:30;;;;;;;;;;;;;;;-147.27;100.00;65176.34;5107038;28;20003;-53
2023/05/14 04:39:56;;;;;;;;;;;;;;;-147.27;100.00;65176.34;5108980;28;19916;-53
2023/05/14 04:42:21;;;;;;;;;;;;;;;-147.27;100.00;65176.34;5100672;28;19927;-51
2023/05/14 04:44:47;;;;;;;;;;;;;;;-147.27;100.00;65176.34;5108360;28;19948;-49
2023/05/14 04:47:13;;;;;;;;;;;;;;;-147.27;100.00;65176.34;5104335;28;19916;-48
2023/05/14 04:49:38;;;;;;;;;;;;;;;-147.27;100.00;65176.34;5104856;28;19970;-51
2023/05/14 04:52:05;;;;;;;;;;;;;;;-147.27;100.00;65176.34;5102503;28;19916;-54
2023/05/14 04:54:30;;;;;;;;;;;;;;;-147.27;100.00;65176.34;5114682;28;19938;-55
2023/05/14 04:56:56;;;;;;;;;;;;;;;-147.27;100.00;65176.34;5123696;28;20937;-52
2023/05/14 04:59:21;;;;;;;;;;;;;;;-147.27;100.00;65176.34;5125708;28;19935;-51
2023/05/14 05:01:46;;;;;;;;;;;;;;;-147.27;100.00;65176.34;5126289;28;20383;-48
2023/05/14 05:04:12;;;;;;;;;;;;;;;-147.27;100.00;65176.34;5123574;28;20004;-52
2023/05/14 05:06:38;;;;;;;;;;;;;;;-147.27;100.00;65176.34;5125367;28;19945;-49
2023/05/14 05:09:03;;;;;;;;;;;;;;;-147.27;100.00;65176.34;5118082;28;19916;-51
2023/05/14 05:11:29;;;;;;;;;;;;;;;-147.27;100.00;65176.34;5125899;28;19916;-51
2023/05/14 05:13:54;;;;;;;;;;;;;;;-147.27;100.00;65176.34;5124161;28;19942;-51
2023/05/14 05:16:19;;;;;;;;;;;;;;;-147.27;100.00;65176.34;5126405;27;19931;-52
2023/05/14 05:18:45;;;;;;;;;;;;;;;-147.27;100.00;65176.34;5122316;27;19923;-53
2023/05/14 05:21:11;;;;;;;;;;;;;;;-147.27;100.00;65176.34;5126965;28;19916;-49
2023/05/14 05:23:36;;;;;;;;;;;;;;;-147.27;100.00;65176.34;5121501;28;19927;-52
2023/05/14 05:26:02;;;;;;;;;;;;;;;-147.27;100.00;65176.34;5125584;28;20415;-50
2023/05/14 05:28:27;;;;;;;;;;;;;;;-147.27;100.00;65176.34;5123756;28;19924;-52
2023/05/14 05:30:53;;;;;;;;;;;;;;;-147.27;100.00;65176.34;5127458;28;19943;-48
2023/05/14 05:33:18;;;;;;;;;;;;;;;-147.27;100.00;65176.34;5120804;28;19916;-51
2023/05/14 05:35:44;;;;;;;;;;;;;;;-147.27;100.00;65176.34;5124928;28;19916;-53
2023/05/14 05:38:09;;;;;;;;;;;;;;;-147.27;100.00;65176.34;5122612;28;19915;-50
2023/05/14 05:40:35;;;;;;;;;;;;;;;-147.27;100.00;65176.34;5124973;28;19912;-53
2023/05/14 05:43:00;;;;;;;;;;;;;;;-147.27;100.00;65176.34;5121775;28;19962;-53
2023/05/14 05:45:26;;;;;;;;;;;;;;;-147.27;100.00;65176.34;5126640;28;19916;-48
2023/05/14 05:47:51;;;;;;;;;;;;;;;-147.27;100.00;65176.34;5124119;28;19984;-51
2023/05/14 05:50:17;;;;;;;;;;;;;;;-147.27;100.00;65176.34;5125836;28;19927;-50
2023/05/14 05:52:42;;;;;;;;;;;;;;;-147.27;100.00;65176.34;5123922;27;19969;-51
2023/05/14 05:55:08;;;;;;;;;;;;;;;-147.27;100.00;65176.34;5126198;28;19941;-49
2023/05/14 05:57:33;;;;;;;;;;;;;;;-147.27;100.00;65176.34;5122580;28;19915;-52
2023/05/14 05:59:59;;;;;;;;;;;;;;;-147.27;100.00;65176.34;5124433;28;19927;-55
2023/05/14 06:02:24;;;;;;;;;;;;;;;-147.27;100.00;65176.34;5123441;28;20103;-52
2023/05/14 06:04:50;;;;;;;;;;;;;;;-147.27;100.00;65176.34;5122909;28;19911;-53
2023/05/14 06:07:15;;;;;;;;;;;;;;;-147.27;100.00;65176.34;5124967;28;19919;-50
2023/05/14 06:09:41;;;;;;;;;;;;;;;-147.27;100.00;65176.34;5120948;28;19976;-50
2023/05/14 06:12:07;;;;;;;;;;;;;;;-147.27;100.00;65176.34;5115380;28;19934;-52
2023/05/14 06:14:32;;;;;;;;;;;;;;;-147.27;100.00;65176.34;5114140;28;19938;-51
2023/05/14 06:16:57;;;;;;;;;;;;;;;-147.27;100.00;65176.34;5118250;28;19950;-52
2023/05/14 06:19:23;;;;;;;;;;;;;;;-147.27;100.00;65176.34;5113578;28;19938;-50
2023/05/14 06:21:49;;;;;;;;;;;;;;;-147.27;100.00;65176.34;5116835;28;19919;-53
2023/05/14 06:24:15;;;;;;;;;;;;;;;-147.27;100.00;65176.34;5114382;28;19979;-50
2023/05/14 06:26:40;;;;;;;;;;;;;;;-147.27;100.00;65176.34;5121120;28;19916;-54
2023/05/14 06:29:06;;;;;;;;;;;;;;;-147.27;100.00;65176.34;5118551;28;19976;-49
2023/05/14 06:31:31;;;;;;;;;;;;;;;-147.27;100.00;65176.34;5113673;28;19923;-50
2023/05/14 06:33:57;;;;;;;;;;;;;;;-147.27;100.00;65176.34;5118230;28;20152;-52
2023/05/14 06:36:22;;;;;;;;;;;;;;;-147.27;100.00;65176.34;5113327;28;19916;-51
2023/05/14 06:38:48;;;;;;;;;;;;;;;-147.27;100.00;65176.34;5113940;28;19924;-52
2023/05/14 06:41:13;;;;;;;;;;;;;;;-147.27;100.00;65176.34;5110653;28;19930;-49
2023/05/14 06:43:38;;;;;;;;;;;;;;;-147.27;100.00;65176.34;5118466;27;19920;-51
2023/05/14 06:46:04;;;;;;;;;;;;;;;-147.27;100.00;65176.34;5113630;28;19920;-52
2023/05/14 06:48:30;;;;;;;;;;;;;;;-147.27;100.00;65176.34;5121467;28;19966;-50
2023/05/14 06:50:55;;;;;;;;;;;;;;;-147.27;100.00;65176.34;5120069;28;19915;-53
2023/05/14 06:53:20;;;;;;;;;;;;;;;-147.27;100.00;65176.34;5123273;28;19927;-52
2023/05/14 06:55:46;;;;;;;;;;;;;;;-147.27;100.00;65176.34;5119395;28;19938;-51
2023/05/14 06:58:12;;;;;;;;;;;;;;;-147.27;100.00;65176.34;5127960;28;19923;-53
2023/05/14 07:00:38;;;;;;;;;;;;;;;-147.27;100.00;65176.34;5123557;28;19920;-51
2023/05/14 07:03:04;;;;;;;;;;;;;;;-147.27;100.00;65176.34;5126496;28;19969;-49
2023/05/14 07:05:29;;;;;;;;;;;;;;;-147.27;100.00;65176.34;5125943;28;19919;-54
2023/05/14 07:07:55;;;;;;;;;;;;;;;-147.27;100.00;65176.34;5128007;28;19916;-54
2023/05/14 07:10:20;;;;;;;;;;;;;;;-147.27;100.00;65176.34;5128636;28;19979;-50
2023/05/14 07:12:45;;;;;;;;;;;;;;;-147.27;100.00;65176.34;5126480;28;20483;-50
2023/05/14 07:15:11;;;;;;;;;;;;;;;-147.27;100.00;65176.34;5124348;28;19896;-49
2023/05/14 07:17:36;;;;;;;;;;;;;;;-147.27;100.00;65176.34;5128110;28;19951;-55
2023/05/14 07:20:02;;;;;;;;;;;;;;;-147.27;100.00;65176.34;5129830;28;19938;-54
2023/05/14 07:22:27;;;;;;;;;;;;;;;-147.27;100.00;65176.34;5127582;28;19968;-56
2023/05/14 07:24:52;;;;;;;;;;;;;;;-147.27;100.00;65176.34;5129338;28;19962;-50
2023/05/14 07:27:18;;;;;;;;;;;;;;;-147.27;100.00;65176.34;5126753;28;19916;-52
2023/05/14 07:29:44;;;;;;;;;;;;;;;-147.27;100.00;65176.34;5122379;28;19942;-52
2023/05/14 07:32:09;;;;;;;;;;;;;;;-147.27;100.00;65176.34;5124244;28;19926;-49
2023/05/14 07:34:35;;;;;;;;;;;;;;;-147.27;100.00;65176.34;5123824;28;19916;-53
2023/05/14 07:37:00;;;;;;;;;;;;;;;-147.27;100.00;65176.34;5124090;28;19916;-51
2023/05/14 07:39:26;;;;;;;;;;;;;;;-147.27;100.00;65176.34;5122633;28;19928;-52
2023/05/14 07:41:53;;;;;;;;;;;;;;;-147.27;100.00;65176.34;5126600;28;19915;-49
2023/05/14 07:44:18;;;;;;;;;;;;;;;-147.27;100.00;65176.34;5116026;28;19920;-49
2023/05/14 07:46:44;;;;;;;;;;;;;;;-147.27;100.00;65176.34;5116917;28;19923;-52
2023/05/14 07:49:09;;;;;;;;;;;;;;;-147.27;100.00;65176.34;5116913;28;19920;-54
2023/05/14 07:51:35;;;;;;;;;;;;;;;-147.27;100.00;65176.34;5114573;28;19948;-56
2023/05/14 07:54:00;;;;;;;;;;;;;;;-147.27;100.00;65176.34;5108682;28;19921;-49
2023/05/14 07:56:25;;;;;;;;;;;;;;;-147.27;100.00;65176.34;5109504;28;19939;-52
2023/05/14 07:58:51;;;;;;;;;;;;;;;-147.27;100.00;65176.34;5111237;28;19934;-51
2023/05/14 08:01:17;;;;;;;;;;;;;;;-147.27;100.00;65176.34;5111202;28;19920;-53
2023/05/14 08:03:42;;;;;;;;;;;;;;;-147.27;100.00;65176.34;5110337;28;20395;-50
2023/05/14 08:06:08;;;;;;;;;;;;;;;-147.27;100.00;65176.34;5109624;28;19916;-49
2023/05/14 08:08:33;;;;;;;;;;;;;;;-147.27;100.00;65176.34;5108618;28;19917;-49
2023/05/14 08:10:59;;;;;;;;;;;;;;;-147.27;100.00;65176.34;5108884;28;20339;-50
2023/05/14 08:13:24;;;;;;;;;;;;;;;-147.27;100.00;65176.34;5104918;28;19929;-52
2023/05/14 08:15:50;;;;;;;;;;;;;;;-147.27;100.00;65176.34;5111048;28;19927;-50
2023/05/14 08:18:15;;;;;;;;;;;;;;;-147.27;100.00;65176.34;5108829;28;19920;-52
2023/05/14 08:20:41;;;;;;;;;;;;;;;-147.27;100.00;65176.34;5109498;28;19943;-49
2023/05/14 08:23:07;;;;;;;;;;;;;;;-147.27;100.00;65176.34;5108482;28;19920;-50
2023/05/14 08:25:32;;;;;;;;;;;;;;;-147.27;100.00;65176.34;5106078;28;19923;-54
2023/05/14 08:27:58;;;;;;;;;;;;;;;-147.27;100.00;65176.34;5106361;28;19920;-54
2023/05/14 08:30:24;;;;;;;;;;;;;;;-147.27;100.00;65176.34;5107499;28;19988;-52
2023/05/14 08:32:50;;;;;;;;;;;;;;;-147.27;100.00;65176.34;5110711;28;19916;-51
2023/05/14 08:35:18;;;;;;;;;;;;;;;-147.27;100.00;65176.34;5106223;28;19974;-51
2023/05/14 08:37:44;;;;;;;;;;;;;;;-147.27;100.00;65176.34;5110317;28;19981;-55
2023/05/14 08:40:10;;;;;;;;;;;;;;;-147.27;100.00;65176.34;5110272;28;19919;-53
2023/05/14 08:42:39;;;;;;;;;;;;;;;-147.27;100.00;65176.34;5092321;28;19920;-50
2023/05/14 08:45:06;;;;;;;;;;;;;;;-147.27;100.00;65176.34;5099484;28;19934;-52
2023/05/14 08:47:32;;;;;;;;;;;;;;;-147.27;100.00;65176.34;5109383;28;19916;-52
2023/05/14 08:50:03;;;;;;;;;;;;;;;-147.27;100.00;65176.34;5105634;28;19941;-50
2023/05/14 08:52:29;;;;;;;;;;;;;;;-147.27;100.00;65176.34;5102414;28;19920;-51
2023/05/14 08:54:55;;;;;;;;;;;;;;;-147.27;100.00;65176.34;5106174;28;19934;-50
2023/05/14 08:57:23;;;;;;;;;;;;;;;-147.27;100.00;65176.34;5105170;28;19916;-52
2023/05/14 08:59:48;;;;;;;;;;;;;;;-147.27;100.00;65176.34;5104450;28;19956;-52
2023/05/14 09:02:16;;;;;;;;;;;;;;;-147.27;100.00;65176.34;5089080;28;19920;-50
2023/05/14 09:04:41;;;;;;;;;;;;;;;-147.27;100.00;65176.34;5086125;28;19923;-51
2023/05/14 09:07:07;;;;;;;;;;;;;;;-147.27;100.00;65176.34;5108060;28;19920;-51
2023/05/14 09:09:33;;;;;;;;;;;;;;;-147.27;100.00;65176.34;5107006;28;19931;-52
2023/05/14 09:12:00;;;;;;;;;;;;;;;-147.27;100.00;65176.34;5110509;28;19916;-54
2023/05/14 09:14:25;;;;;;;;;;;;;;;-147.27;100.00;65176.34;5106229;28;19927;-50
2023/05/14 09:16:51;;;;;;;;;;;;;;;-147.27;100.00;65176.34;5107835;28;19920;-56
2023/05/14 09:19:17;;;;;;;;;;;;;;;-147.27;100.00;65176.34;5107862;28;19916;-55
2023/05/14 09:21:43;;;;;;;;;;;;;;;-147.27;100.00;65176.34;5108394;28;19927;-52
2023/05/14 09:24:17;;;;;;;;;;;;;;;-147.27;100.00;65176.34;5108549;28;19928;-48
2023/05/14 09:26:43;;;;;;;;;;;;;;;-147.27;100.00;65176.34;5108023;28;19983;-51
2023/05/14 09:29:08;;;;;;;;;;;;;;;-147.27;100.00;65176.34;5106217;28;19923;-52
2023/05/14 09:31:36;;;;;;;;;;;;;;;-147.27;100.00;65176.34;5107356;28;19923;-47
2023/05/14 09:34:01;;;;;;;;;;;;;;;-147.27;100.00;65176.34;5110127;28;19942;-52
2023/05/14 09:36:27;;;;;;;;;;;;;;;-147.27;100.00;65176.34;5106664;28;19917;-49
2023/05/14 09:38:55;;;;;;;;;;;;;;;-147.27;100.00;65176.34;5110268;28;19916;-51
2023/05/14 09:41:21;;;;;;;;;;;;;;;-147.27;100.00;65176.34;5107674;28;19920;-51
2023/05/14 09:43:47;;;;;;;;;;;;;;;-147.27;100.00;65176.34;5103003;28;19920;-54
2023/05/14 09:46:13;;;;;;;;;;;;;;;-147.27;100.00;65176.34;5103829;28;19947;-52
2023/05/14 09:48:38;;;;;;;;;;;;;;;-147.27;100.00;65176.34;5109109;28;19920;-54
2023/05/14 09:51:04;;;;;;;;;;;;;;;-147.27;100.00;65176.34;5108101;28;19938;-49
2023/05/14 09:53:31;;;;;;;;;;;;;;;-147.27;100.00;65176.34;5102861;28;19951;-52
2023/05/14 09:55:56;;;;;;;;;;;;;;;-147.27;100.00;65176.34;5100587;28;19938;-51
2023/05/14 09:58:21;;;;;;;;;;;;;;;-147.27;100.00;65176.34;5106658;28;19916;-51
2023/05/14 10:00:47;;;;;;;;;;;;;;;-147.27;100.00;65176.34;5103866;28;19916;-54
2023/05/14 10:03:13;;;;;;;;;;;;;;;-147.27;100.00;65176.34;5105433;28;19946;-52
2023/05/14 10:05:40;;;;;;;;;;;;;;;-147.27;100.00;65176.34;5104387;28;19916;-51
2023/05/14 10:08:26;;;;;;;;;;;;;;;-147.27;100.00;65176.34;5106919;28;19916;-52
2023/05/14 10:10:53;;;;;;;;;;;;;;;-147.27;100.00;65176.34;5103597;28;19947;-52
2023/05/14 10:13:22;;;;;;;;;;;;;;;-147.27;100.00;65176.34;5106395;28;19900;-53
2023/05/14 10:15:50;;;;;;;;;;;;;;;-147.27;100.00;65176.34;5103020;28;19977;-51
2023/05/14 10:18:18;;;;;;;;;;;;;;;-147.27;100.00;65176.34;5105376;28;19939;-50
2023/05/14 10:20:46;;;;;;;;;;;;;;;-147.27;100.00;65176.34;5103675;28;19952;-51
2023/05/14 10:23:13;;;;;;;;;;;;;;;-147.27;100.00;65176.34;5101199;28;19920;-51
2023/05/14 10:25:38;;;;;;;;;;;;;;;-147.27;100.00;65176.34;5103634;28;19930;-49
2023/05/14 10:28:04;;;;;;;;;;;;;;;-147.27;100.00;65176.34;5102424;28;19951;-53
2023/05/14 10:30:31;;;;;;;;;;;;;;;-147.27;100.00;65176.34;5107085;28;20008;-51
2023/05/14 10:33:10;;;;;;;;;;;;;;;-147.27;100.00;65176.34;5105854;28;19915;-51
2023/05/14 10:35:54;;;;;;;;;;;;;;;-147.27;100.00;65176.34;5105887;28;19921;-54
2023/05/14 10:38:25;;;;;;;;;;;;;;;-147.27;100.00;65176.34;5105940;28;19916;-52
2023/05/14 10:40:58;;;;;;;;;;;;;;;-147.27;100.00;65176.34;5105407;28;19927;-52
2023/05/14 10:43:25;;;;;;;;;;;;;;;-147.27;100.00;65176.34;5103859;28;19924;-52
2023/05/14 10:45:51;;;;;;;;;;;;;;;-147.27;100.00;65176.34;5104092;28;19924;-51
2023/05/14 10:48:18;;;;;;;;;;;;;;;-147.27;100.00;65176.34;5101896;28;19920;-50
2023/05/14 10:50:43;;;;;;;;;;;;;;;-147.27;100.00;65176.34;5104283;28;19916;-55
2023/05/14 10:53:10;;;;;;;;;;;;;;;-147.27;100.00;65176.34;5107728;28;19928;-51
2023/05/14 10:55:35;;;;;;;;;;;;;;;-147.27;100.00;65176.34;5124362;28;19926;-53
2023/05/14 10:58:02;;;;;;;;;;;;;;;-147.27;100.00;65176.34;5119287;28;19928;-53
2023/05/14 11:00:28;;;;;;;;;;;;;;;-147.27;100.00;65176.34;5120672;28;19920;-50
2023/05/14 11:02:56;;;;;;;;;;;;;;;-147.27;100.00;65176.34;5119788;28;19930;-53
2023/05/14 11:05:21;;;;;;;;;;;;;;;-147.27;100.00;65176.34;5124164;28;19924;-52
2023/05/14 11:07:48;;;;;;;;;;;;;;;-147.27;100.00;65176.34;5124031;28;19915;-54
2023/05/14 11:10:14;;;;;;;;;;;;;;;-147.27;100.00;65176.34;5118606;28;19923;-51
2023/05/14 11:12:41;;;;;;;;;;;;;;;-147.27;100.00;65176.34;5120473;28;19916;-52
2023/05/14 11:15:08;;;;;;;;;;;;;;;-147.27;100.00;65176.34;5120407;28;19934;-51
2023/05/14 11:17:34;;;;;;;;;;;;;;;-147.27;100.00;65176.34;5122927;28;19991;-54
2023/05/14 11:19:59;;;;;;;;;;;;;;;-147.27;100.00;65176.34;5120348;28;19916;-54
2023/05/14 11:22:25;;;;;;;;;;;;;;;-147.27;100.00;65176.34;5116051;28;19945;-53
2023/05/14 11:24:51;;;;;;;;;;;;;;;-147.27;100.00;65176.34;5118830;28;19924;-54
2023/05/14 11:27:17;;;;;;;;;;;;;;;-147.27;100.00;65176.34;5115581;27;19967;-52
2023/05/14 11:29:44;;;;;;;;;;;;;;;-147.27;100.00;65176.34;5121211;28;19930;-54
2023/05/14 11:32:10;;;;;;;;;;;;;;;-147.27;100.00;65176.34;5119681;28;19920;-52
2023/05/14 11:34:36;;;;;;;;;;;;;;;-147.27;100.00;65176.34;5117752;28;19916;-54
2023/05/14 11:37:03;;;;;;;;;;;;;;;-147.27;100.00;65176.34;5119737;28;19916;-54
2023/05/14 11:39:28;;;;;;;;;;;;;;;-147.27;100.00;65176.34;5121705;28;19924;-55
2023/05/14 11:41:54;;;;;;;;;;;;;;;-147.27;100.00;65176.34;5123859;28;19972;-54
2023/05/14 11:44:19;;;;;;;;;;;;;;;-147.27;100.00;65176.34;5120874;28;19920;-51
2023/05/14 11:46:57;;;;;;;;;;;;;;;-147.27;100.00;65176.34;5124320;28;19916;-50
2023/05/14 11:49:23;;;;;;;;;;;;;;;-147.27;100.00;65176.34;5122272;28;19916;-56
2023/05/14 11:51:49;;;;;;;;;;;;;;;-147.27;100.00;65176.34;5121285;28;19915;-53
2023/05/14 11:54:15;;;;;;;;;;;;;;;-147.27;100.00;65176.34;5123032;28;19927;-54
2023/05/14 11:56:41;;;;;;;;;;;;;;;-147.27;100.00;65176.34;5124135;28;19916;-53
2023/05/14 11:59:09;;;;;;;;;;;;;;;-147.27;100.00;65176.34;5122696;28;19962;-51
2023/05/14 12:01:37;;;;;;;;;;;;;;;-147.27;100.00;65176.34;5120759;28;21289;-55
2023/05/14 12:04:03;;;;;;;;;;;;;;;-147.27;100.00;65176.34;5120329;28;19920;-55
2023/05/14 12:06:31;;;;;;;;;;;;;;;-147.27;100.00;65176.34;5123452;28;19919;-52
2023/05/14 12:08:57;;;;;;;;;;;;;;;-147.27;100.00;65176.34;5123257;28;19916;-54
2023/05/14 12:11:22;;;;;;;;;;;;;;;-147.27;100.00;65176.34;5124780;28;19915;-48
2023/05/14 12:13:47;;;;;;;;;;;;;;;-147.27;100.00;65176.34;5122374;28;19962;-55